Time;durP1;ratioP1;P1;durP2;ratioP2;P2;SDS_P1;SDS_P2;PMS_P1;PMS_P2;Temp;Humidity;BMP_temperature;BMP_pressure;BME280_temperature;BME280_humidity;BME280_pressure;Samples;Min_cycle;Max_cycle;Signal;HPM_P1;HPM_P2
2022/01/09 00:00:30;;;;;;;33.13;14.98;;;;;;;;;;4995233;28;20026;-38
2022/01/09 00:02:57;;;;;;;25.02;12.98;;;;;;;;;;4995131;28;20026;-38
2022/01/09 00:05:23;;;;;;;36.13;12.70;;;;;;;;;;4995148;28;20117;-38
2022/01/09 00:07:49;;;;;;;47.20;15.55;;;;;;;;;;4994792;28;20133;-37
2022/01/09 00:10:15;;;;;;;35.80;14.70;;;;;;;;;;4993466;28;20022;-38
2022/01/09 00:12:41;;;;;;;35.75;14.00;;;;;;;;;;4994843;28;20487;-38
2022/01/09 00:15:07;;;;;;;26.67;12.13;;;;;;;;;;4994990;28;20034;-37
2022/01/09 00:17:33;;;;;;;22.02;11.00;;;;;;;;;;4994695;28;20030;-38
2022/01/09 00:19:58;;;;;;;32.00;13.30;;;;;;;;;;4994564;28;20041;-38
2022/01/09 00:22:39;;;;;;;47.45;14.80;;;;;;;;;;4994540;28;20038;-37
2022/01/09 00:25:05;;;;;;;26.52;10.98;;;;;;;;;;4994621;28;20671;-38
2022/01/09 00:27:31;;;;;;;24.95;11.60;;;;;;;;;;4993208;28;20514;-38
2022/01/09 00:29:56;;;;;;;31.50;14.05;;;;;;;;;;4994456;28;20073;-38
2022/01/09 00:32:22;;;;;;;23.55;12.32;;;;;;;;;;4994394;28;20076;-38
2022/01/09 00:34:48;;;;;;;26.35;11.55;;;;;;;;;;4994519;28;20041;-38
2022/01/09 00:37:13;;;;;;;24.60;13.88;;;;;;;;;;4994567;28;20039;-38
2022/01/09 00:39:38;;;;;;;27.27;12.05;;;;;;;;;;4994677;28;20034;-38
2022/01/09 00:42:04;;;;;;;31.83;13.70;;;;;;;;;;4994229;28;20057;-38
2022/01/09 00:44:30;;;;;;;26.42;11.48;;;;;;;;;;4994060;28;20177;-38
2022/01/09 00:46:56;;;;;;;26.65;13.52;;;;;;;;;;4994424;28;20054;-38
2022/01/09 00:49:22;;;;;;;31.25;15.65;;;;;;;;;;4994120;28;20023;-37
2022/01/09 00:51:48;;;;;;;38.65;15.35;;;;;;;;;;4994290;28;20114;-38
2022/01/09 00:54:13;;;;;;;41.45;17.98;;;;;;;;;;4994119;28;20439;-38
2022/01/09 00:56:39;;;;;;;36.85;15.95;;;;;;;;;;4994390;28;20037;-37
2022/01/09 00:59:04;;;;;;;34.42;15.88;;;;;;;;;;4994260;28;20026;-37
2022/01/09 01:01:31;;;;;;;51.10;19.63;;;;;;;;;;4994254;28;20054;-39
2022/01/09 01:03:56;;;;;;;39.83;15.77;;;;;;;;;;4994069;28;20040;-37
2022/01/09 01:06:21;;;;;;;42.30;18.55;;;;;;;;;;4993771;28;20564;-38
2022/01/09 01:08:47;;;;;;;32.22;17.13;;;;;;;;;;4994070;28;20092;-38
2022/01/09 01:11:13;;;;;;;35.92;16.80;;;;;;;;;;4993836;28;20031;-37
2022/01/09 01:13:38;;;;;;;30.85;15.23;;;;;;;;;;4993738;28;20382;-38
2022/01/09 01:16:04;;;;;;;35.58;15.70;;;;;;;;;;4993982;28;20026;-39
2022/01/09 01:18:29;;;;;;;38.95;17.05;;;;;;;;;;4993933;28;20030;-38
2022/01/09 01:20:54;;;;;;;45.75;15.88;;;;;;;;;;4993659;28;20528;-37
2022/01/09 01:23:20;;;;;;;30.48;15.63;;;;;;;;;;4995205;28;20029;-38
2022/01/09 01:25:50;;;;;;;23.55;12.88;;;;;;;;;;4995233;28;20037;-39
2022/01/09 01:28:17;;;;;;;32.03;12.82;;;;;;;;;;4995304;28;20034;-36
2022/01/09 01:30:42;;;;;;;30.65;12.80;;;;;;;;;;4995021;28;20088;-38
2022/01/09 01:33:08;;;;;;;35.38;17.25;;;;;;;;;;4994936;28;20471;-38
2022/01/09 01:35:33;;;;;;;26.02;9.05;;;;;;;;;;4994945;28;20022;-38
2022/01/09 01:37:59;;;;;;;51.45;18.20;;;;;;;;;;4994822;28;20037;-38
2022/01/09 01:40:24;;;;;;;26.85;14.00;;;;;;;;;;4995102;28;20391;-38
2022/01/09 01:42:50;;;;;;;28.70;14.55;;;;;;;;;;4995082;28;20474;-37
2022/01/09 01:45:15;;;;;;;26.73;14.55;;;;;;;;;;4994687;28;20026;-38
2022/01/09 01:47:41;;;;;;;18.73;11.13;;;;;;;;;;4994491;28;20022;-38
2022/01/09 01:50:08;;;;;;;32.45;13.70;;;;;;;;;;4994599;28;20034;-37
2022/01/09 01:52:41;;;;;;;29.65;11.90;;;;;;;;;;4994705;28;20060;-38
2022/01/09 01:55:09;;;;;;;33.75;14.48;;;;;;;;;;4994057;28;20137;-38
2022/01/09 01:57:37;;;;;;;22.23;11.02;;;;;;;;;;4994287;28;20479;-38
2022/01/09 02:00:06;;;;;;;20.40;11.23;;;;;;;;;;4994592;28;20022;-38
2022/01/09 02:02:31;;;;;;;19.35;10.52;;;;;;;;;;4993095;28;20034;-37
2022/01/09 02:04:57;;;;;;;17.02;9.68;;;;;;;;;;4994590;28;20031;-38
2022/01/09 02:07:24;;;;;;;14.93;9.88;;;;;;;;;;4994290;28;20026;-37
2022/01/09 02:09:49;;;;;;;28.98;13.23;;;;;;;;;;4994454;28;20030;-38
2022/01/09 02:12:16;;;;;;;26.42;14.27;;;;;;;;;;4994063;28;20117;-38
2022/01/09 02:14:45;;;;;;;21.95;11.85;;;;;;;;;;4994330;28;20355;-38
2022/01/09 02:17:16;;;;;;;30.08;15.52;;;;;;;;;;4994270;28;20022;-38
2022/01/09 02:19:55;;;;;;;21.02;11.75;;;;;;;;;;4994310;28;20030;-37
2022/01/09 02:22:22;;;;;;;35.30;14.90;;;;;;;;;;4994121;28;20038;-38
2022/01/09 02:24:49;;;;;;;25.92;14.20;;;;;;;;;;4993845;28;20030;-38
2022/01/09 02:27:15;;;;;;;39.25;15.98;;;;;;;;;;4993775;28;20030;-36
2022/01/09 02:29:41;;;;;;;28.00;9.73;;;;;;;;;;4994142;28;20138;-38
2022/01/09 02:32:07;;;;;;;20.23;10.68;;;;;;;;;;4992942;28;20408;-39
2022/01/09 02:34:33;;;;;;;23.67;11.27;;;;;;;;;;4992721;28;20394;-39
2022/01/09 02:36:59;;;;;;;22.33;12.18;;;;;;;;;;4993827;28;20429;-39
2022/01/09 02:39:24;;;;;;;27.70;15.05;;;;;;;;;;4994061;28;20026;-37
2022/01/09 02:41:49;;;;;;;32.03;15.57;;;;;;;;;;4993678;28;20062;-38
2022/01/09 02:44:15;;;;;;;24.77;13.70;;;;;;;;;;4993640;28;20109;-37
2022/01/09 02:46:57;;;;;;;29.50;12.65;;;;;;;;;;4993589;28;20018;-38
2022/01/09 02:49:24;;;;;;;12.02;7.22;;;;;;;;;;4993872;28;20088;-38
2022/01/09 02:51:50;;;;;;;38.85;14.80;;;;;;;;;;4993688;28;20117;-38
2022/01/09 02:56:59;;;;;;;15.07;7.88;;;;;;;;;;4993891;28;20076;-38
2022/01/09 02:59:25;;;;;;;22.42;11.30;;;;;;;;;;4993695;28;20034;-39
2022/01/09 03:01:50;;;;;;;12.25;8.57;;;;;;;;;;4993338;28;20031;-38
2022/01/09 03:04:16;;;;;;;26.42;12.15;;;;;;;;;;4993597;28;20057;-38
2022/01/09 03:06:41;;;;;;;25.42;12.48;;;;;;;;;;4992922;28;20459;-38
2022/01/09 03:09:07;;;;;;;36.53;14.90;;;;;;;;;;4992810;28;20035;-38
2022/01/09 03:11:33;;;;;;;31.65;12.73;;;;;;;;;;4993133;28;20081;-38
2022/01/09 03:13:59;;;;;;;34.03;14.90;;;;;;;;;;4992351;28;20034;-38
2022/01/09 03:16:24;;;;;;;29.10;14.40;;;;;;;;;;4993194;28;20462;-39
2022/01/09 03:18:50;;;;;;;25.15;11.13;;;;;;;;;;4993163;28;20030;-37
2022/01/09 03:21:15;;;;;;;23.48;12.75;;;;;;;;;;4993505;28;20427;-38
2022/01/09 03:23:41;;;;;;;25.50;14.48;;;;;;;;;;4993125;28;20022;-38
2022/01/09 03:26:09;;;;;;;49.17;18.17;;;;;;;;;;4993440;28;20031;-38
2022/01/09 03:28:35;;;;;;;23.30;12.23;;;;;;;;;;4993338;28;20505;-38
2022/01/09 03:31:00;;;;;;;40.42;17.45;;;;;;;;;;4993014;28;20034;-38
2022/01/09 03:33:25;;;;;;;42.67;16.17;;;;;;;;;;4993355;28;20072;-37
2022/01/09 03:35:51;;;;;;;45.65;16.27;;;;;;;;;;4993281;28;20370;-38
2022/01/09 03:38:16;;;;;;;43.17;16.42;;;;;;;;;;4993032;28;20026;-37
2022/01/09 03:40:42;;;;;;;36.25;15.80;;;;;;;;;;4992960;28;20092;-38
2022/01/09 03:43:07;;;;;;;40.70;16.45;;;;;;;;;;4992983;28;20030;-38
2022/01/09 03:45:32;;;;;;;22.33;11.07;;;;;;;;;;4993175;28;20034;-38
2022/01/09 03:47:58;;;;;;;24.00;11.32;;;;;;;;;;4993155;28;20414;-37
2022/01/09 03:50:24;;;;;;;40.85;16.13;;;;;;;;;;4992993;28;20109;-37
2022/01/09 03:52:50;;;;;;;60.70;22.80;;;;;;;;;;4992807;28;20031;-37
2022/01/09 03:55:19;;;;;;;30.25;14.02;;;;;;;;;;4992645;28;20093;-37
2022/01/09 03:57:46;;;;;;;11.55;6.35;;;;;;;;;;4993098;28;20054;-38
2022/01/09 04:00:15;;;;;;;31.38;17.20;;;;;;;;;;4993147;28;20390;-38
2022/01/09 04:02:41;;;;;;;25.05;10.52;;;;;;;;;;4992727;28;20030;-37
2022/01/09 04:05:08;;;;;;;26.98;13.73;;;;;;;;;;4992820;28;20037;-37
2022/01/09 04:07:34;;;;;;;24.42;11.98;;;;;;;;;;4992743;28;20474;-37
2022/01/09 04:09:59;;;;;;;40.33;15.65;;;;;;;;;;4993005;28;20046;-37
2022/01/09 04:12:59;;;;;;;22.73;13.13;;;;;;;;;;4992889;28;20524;-37
2022/01/09 04:15:17;;;;;;;36.60;16.65;;;;;;;;;;4990549;28;20041;-37
2022/01/09 04:17:55;;;;;;;33.90;16.88;;;;;;;;;;4992930;28;20031;-38
2022/01/09 04:20:28;;;;;;;34.53;15.63;;;;;;;;;;4996154;28;20018;-38
2022/01/09 04:22:54;;;;;;;30.50;14.60;;;;;;;;;;4996318;28;20066;-37
2022/01/09 04:25:20;;;;;;;32.35;14.02;;;;;;;;;;4996479;28;20061;-37
2022/01/09 04:27:47;;;;;;;38.47;17.20;;;;;;;;;;4996248;28;20101;-37
2022/01/09 04:30:13;;;;;;;35.20;17.15;;;;;;;;;;4996113;28;20471;-38
2022/01/09 04:32:39;;;;;;;23.35;11.88;;;;;;;;;;4995952;28;20042;-37
2022/01/09 04:35:06;;;;;;;28.73;14.98;;;;;;;;;;4996312;28;20027;-37
2022/01/09 04:37:33;;;;;;;10.10;5.93;;;;;;;;;;4995998;28;20030;-37
2022/01/09 04:39:59;;;;;;;17.33;9.13;;;;;;;;;;4996303;28;20034;-37
2022/01/09 04:42:31;;;;;;;16.25;9.88;;;;;;;;;;4996195;28;20085;-38
2022/01/09 04:44:57;;;;;;;25.88;10.60;;;;;;;;;;4995874;28;20439;-37
2022/01/09 04:47:22;;;;;;;44.85;16.00;;;;;;;;;;4995748;28;20069;-37
2022/01/09 04:49:49;;;;;;;24.85;8.73;;;;;;;;;;4995759;28;20041;-38
2022/01/09 04:52:18;;;;;;;13.90;7.82;;;;;;;;;;4995657;28;20436;-39
2022/01/09 04:54:44;;;;;;;11.00;8.52;;;;;;;;;;4995670;28;20050;-40
2022/01/09 04:57:10;;;;;;;17.30;7.18;;;;;;;;;;4996018;28;20512;-39
2022/01/09 04:59:35;;;;;;;26.42;12.82;;;;;;;;;;4995962;28;20030;-39
2022/01/09 05:02:01;;;;;;;19.55;9.85;;;;;;;;;;4995866;28;20030;-39
2022/01/09 05:04:27;;;;;;;26.58;13.88;;;;;;;;;;4995540;28;20030;-39
2022/01/09 05:06:52;;;;;;;18.58;11.07;;;;;;;;;;4995816;28;20031;-40
2022/01/09 05:09:17;;;;;;;16.02;9.05;;;;;;;;;;4995437;28;20034;-39
2022/01/09 05:11:44;;;;;;;18.75;11.50;;;;;;;;;;4995272;28;20113;-39
2022/01/09 05:14:09;;;;;;;21.85;11.07;;;;;;;;;;4995599;28;20045;-39
2022/01/09 05:16:37;;;;;;;28.30;13.40;;;;;;;;;;4995256;28;20101;-39
2022/01/09 05:19:06;;;;;;;30.17;12.65;;;;;;;;;;4995242;28;20081;-38
2022/01/09 05:21:33;;;;;;;34.77;13.70;;;;;;;;;;4995150;28;20026;-39
2022/01/09 05:23:59;;;;;;;20.50;10.98;;;;;;;;;;4995120;28;20030;-39
2022/01/09 05:26:25;;;;;;;22.17;10.00;;;;;;;;;;4995080;28;20084;-40
2022/01/09 05:28:51;;;;;;;16.67;10.10;;;;;;;;;;4995387;28;20026;-38
2022/01/09 05:31:17;;;;;;;29.13;10.07;;;;;;;;;;4994039;28;20026;-39
2022/01/09 05:33:42;;;;;;;28.60;13.75;;;;;;;;;;4995274;28;20031;-38
2022/01/09 05:36:08;;;;;;;17.45;7.88;;;;;;;;;;4995210;28;20034;-38
2022/01/09 05:38:33;;;;;;;28.10;11.18;;;;;;;;;;4994886;28;20026;-39
2022/01/09 05:40:59;;;;;;;25.05;12.95;;;;;;;;;;4994789;28;20053;-38
2022/01/09 05:43:25;;;;;;;14.70;8.48;;;;;;;;;;4995048;28;20026;-38
2022/01/09 05:45:50;;;;;;;21.08;11.80;;;;;;;;;;4995068;28;20096;-38
2022/01/09 05:48:17;;;;;;;12.75;9.68;;;;;;;;;;4994758;28;20462;-38
2022/01/09 05:50:43;;;;;;;17.52;10.80;;;;;;;;;;4994876;28;20101;-39
2022/01/09 05:53:09;;;;;;;36.05;12.45;;;;;;;;;;4994538;28;20034;-39
2022/01/09 05:55:35;;;;;;;9.93;7.20;;;;;;;;;;4994324;28;20061;-39
2022/01/09 05:58:01;;;;;;;16.08;11.10;;;;;;;;;;4994527;28;20030;-38
2022/01/09 06:00:26;;;;;;;14.57;7.38;;;;;;;;;;4994814;28;20018;-39
2022/01/09 06:02:52;;;;;;;31.63;15.52;;;;;;;;;;4994469;28;20443;-38
2022/01/09 06:05:17;;;;;;;24.92;12.63;;;;;;;;;;4994599;28;20030;-38
2022/01/09 06:07:43;;;;;;;25.98;13.30;;;;;;;;;;4994341;28;20030;-39
2022/01/09 06:10:10;;;;;;;23.88;13.30;;;;;;;;;;4994236;28;20039;-39
2022/01/09 06:12:36;;;;;;;3.17;2.92;;;;;;;;;;4994187;28;20031;-39
2022/01/09 06:15:03;;;;;;;24.10;12.18;;;;;;;;;;4994451;28;20026;-38
2022/01/09 06:17:28;;;;;;;18.30;9.30;;;;;;;;;;4994103;28;20038;-39
2022/01/09 06:19:54;;;;;;;28.80;13.27;;;;;;;;;;4994393;28;20046;-39
2022/01/09 06:22:20;;;;;;;22.25;11.70;;;;;;;;;;4994333;28;20062;-39
2022/01/09 06:24:47;;;;;;;26.75;12.00;;;;;;;;;;4994035;28;20022;-38
2022/01/09 06:27:15;;;;;;;7.85;5.97;;;;;;;;;;4994210;28;20564;-39
2022/01/09 06:29:41;;;;;;;7.05;3.03;;;;;;;;;;4993934;28;20378;-38
2022/01/09 06:32:06;;;;;;;5.70;2.50;;;;;;;;;;4994093;28;20034;-39
2022/01/09 06:34:32;;;;;;;12.27;8.18;;;;;;;;;;4994159;28;20529;-38
2022/01/09 06:36:57;;;;;;;10.15;8.43;;;;;;;;;;4994106;28;20537;-39
2022/01/09 06:39:23;;;;;;;23.73;12.98;;;;;;;;;;4993661;28;20379;-38
2022/01/09 06:41:49;;;;;;;47.22;22.35;;;;;;;;;;4993531;28;20042;-38
2022/01/09 06:44:15;;;;;;;60.40;28.02;;;;;;;;;;4993911;28;20073;-37
2022/01/09 06:46:41;;;;;;;34.10;15.70;;;;;;;;;;4993895;28;20054;-39
2022/01/09 06:49:07;;;;;;;38.15;17.85;;;;;;;;;;4993489;28;20030;-39
2022/01/09 06:51:32;;;;;;;37.45;19.40;;;;;;;;;;4993423;28;20030;-39
2022/01/09 06:53:58;;;;;;;57.97;22.08;;;;;;;;;;4993611;28;20084;-38
2022/01/09 06:56:23;;;;;;;21.73;11.07;;;;;;;;;;4993859;28;20370;-38
2022/01/09 06:58:49;;;;;;;19.35;10.50;;;;;;;;;;4993536;28;20027;-39
2022/01/09 07:01:14;;;;;;;23.20;12.27;;;;;;;;;;4993736;28;20065;-38
2022/01/09 07:03:40;;;;;;;40.10;16.25;;;;;;;;;;4993692;28;20473;-38
2022/01/09 07:06:05;;;;;;;26.38;12.70;;;;;;;;;;4993695;28;20030;-39
2022/01/09 07:08:33;;;;;;;25.88;7.88;;;;;;;;;;4993347;28;20359;-38
2022/01/09 07:10:59;;;;;;;16.80;9.63;;;;;;;;;;4993463;28;20034;-39
2022/01/09 07:13:25;;;;;;;32.75;17.58;;;;;;;;;;4993505;28;20026;-38
2022/01/09 07:15:50;;;;;;;30.15;14.35;;;;;;;;;;4993498;28;20034;-39
2022/01/09 07:18:16;;;;;;;22.45;10.02;;;;;;;;;;4993284;28;20037;-38
2022/01/09 07:20:42;;;;;;;29.35;12.98;;;;;;;;;;4993266;28;20022;-38
2022/01/09 07:23:07;;;;;;;39.22;19.73;;;;;;;;;;4993151;28;20031;-39
2022/01/09 07:25:33;;;;;;;34.72;14.98;;;;;;;;;;4993176;28;20022;-39
2022/01/09 07:27:58;;;;;;;21.33;12.38;;;;;;;;;;4993125;28;20037;-39
2022/01/09 07:30:27;;;;;;;25.17;13.50;;;;;;;;;;4993413;28;20553;-38
2022/01/09 07:32:52;;;;;;;53.55;24.50;;;;;;;;;;4993358;28;20038;-39
2022/01/09 07:35:18;;;;;;;51.10;25.10;;;;;;;;;;4992999;28;20104;-39
2022/01/09 07:37:43;;;;;;;34.28;17.88;;;;;;;;;;4993320;28;20053;-38
2022/01/09 07:40:09;;;;;;;56.83;26.00;;;;;;;;;;4992996;28;20387;-39
2022/01/09 07:42:35;;;;;;;52.47;28.65;;;;;;;;;;4993241;28;20035;-39
2022/01/09 07:45:00;;;;;;;62.60;31.05;;;;;;;;;;4992954;28;20117;-39
2022/01/09 07:47:26;;;;;;;62.88;30.58;;;;;;;;;;4993247;28;20030;-38
2022/01/09 07:49:52;;;;;;;66.78;31.10;;;;;;;;;;4992929;28;20474;-38
2022/01/09 07:52:17;;;;;;;40.55;21.98;;;;;;;;;;4992905;28;20026;-39
2022/01/09 07:54:43;;;;;;;45.13;23.15;;;;;;;;;;4995241;28;20042;-38
2022/01/09 07:57:08;;;;;;;54.20;27.88;;;;;;;;;;4996801;28;20141;-39
2022/01/09 07:59:34;;;;;;;56.45;27.55;;;;;;;;;;4997004;28;20033;-39
2022/01/09 08:01:59;;;;;;;49.22;28.45;;;;;;;;;;4996952;28;20027;-39
2022/01/09 08:04:25;;;;;;;55.60;30.50;;;;;;;;;;4996873;28;20454;-39
2022/01/09 08:06:50;;;;;;;52.38;27.13;;;;;;;;;;4996630;28;20362;-39
2022/01/09 08:09:15;;;;;;;54.38;29.65;;;;;;;;;;4996694;28;20033;-40
2022/01/09 08:11:41;;;;;;;53.92;29.42;;;;;;;;;;4996332;28;20041;-39
2022/01/09 08:14:06;;;;;;;51.85;28.45;;;;;;;;;;4996700;28;20033;-39
2022/01/09 08:16:32;;;;;;;48.97;25.65;;;;;;;;;;4996596;28;20467;-39
2022/01/09 08:18:57;;;;;;;46.83;24.85;;;;;;;;;;4996370;28;20033;-38
2022/01/09 08:21:23;;;;;;;38.97;22.55;;;;;;;;;;4996295;28;20053;-39
2022/01/09 08:23:49;;;;;;;41.58;22.83;;;;;;;;;;4996516;28;20038;-38
2022/01/09 08:26:16;;;;;;;37.80;18.88;;;;;;;;;;4996583;28;20034;-38
2022/01/09 08:28:44;;;;;;;38.53;21.40;;;;;;;;;;4996155;28;20109;-38
2022/01/09 08:31:11;;;;;;;40.90;23.17;;;;;;;;;;4996008;28;20030;-38
2022/01/09 08:33:37;;;;;;;44.85;23.85;;;;;;;;;;4996192;28;20466;-38
2022/01/09 08:36:02;;;;;;;38.95;21.00;;;;;;;;;;4996077;28;20093;-38
2022/01/09 08:38:28;;;;;;;37.38;21.63;;;;;;;;;;4996105;28;20061;-38
2022/01/09 08:40:53;;;;;;;39.40;22.35;;;;;;;;;;4996311;28;20505;-38
2022/01/09 08:43:19;;;;;;;34.53;20.92;;;;;;;;;;4996102;28;20464;-38
2022/01/09 08:45:44;;;;;;;37.70;21.90;;;;;;;;;;4995908;28;20433;-38
2022/01/09 08:48:10;;;;;;;30.58;18.92;;;;;;;;;;4995935;28;20034;-38
2022/01/09 08:50:35;;;;;;;30.98;19.60;;;;;;;;;;4995812;28;20053;-40
2022/01/09 08:53:01;;;;;;;30.67;17.63;;;;;;;;;;4995758;28;20053;-38
2022/01/09 08:55:26;;;;;;;28.17;17.98;;;;;;;;;;4995575;28;20055;-38
2022/01/09 08:57:52;;;;;;;28.17;17.50;;;;;;;;;;4996017;28;20141;-38
2022/01/09 09:00:18;;;;;;;28.23;17.40;;;;;;;;;;4995647;28;20022;-38
2022/01/09 09:02:44;;;;;;;28.67;18.40;;;;;;;;;;4995854;28;20042;-38
2022/01/09 09:05:10;;;;;;;28.58;18.33;;;;;;;;;;4994319;28;20578;-38
2022/01/09 09:07:35;;;;;;;28.50;18.58;;;;;;;;;;4995021;28;20077;-39
2022/01/09 09:10:04;;;;;;;29.55;17.65;;;;;;;;;;4995693;28;20050;-38
2022/01/09 09:12:31;;;;;;;34.22;19.27;;;;;;;;;;4995695;28;20039;-39
2022/01/09 09:14:58;;;;;;;29.58;18.30;;;;;;;;;;4995267;28;20037;-39
2022/01/09 09:17:24;;;;;;;30.30;18.58;;;;;;;;;;4995634;28;20036;-38
2022/01/09 09:19:49;;;;;;;28.50;18.08;;;;;;;;;;4995254;28;20034;-39
2022/01/09 09:22:15;;;;;;;27.15;17.70;;;;;;;;;;4995502;28;20035;-39
2022/01/09 09:24:40;;;;;;;31.38;18.45;;;;;;;;;;4994310;28;20026;-38
2022/01/09 09:27:06;;;;;;;31.13;18.27;;;;;;;;;;4995123;28;20072;-38
2022/01/09 09:29:32;;;;;;;29.55;17.75;;;;;;;;;;4995094;28;20045;-39
2022/01/09 09:31:57;;;;;;;28.30;17.10;;;;;;;;;;4995000;28;20030;-38
2022/01/09 09:34:23;;;;;;;30.08;18.35;;;;;;;;;;4995019;28;20034;-38
2022/01/09 09:36:48;;;;;;;28.75;17.27;;;;;;;;;;4995227;28;20493;-39
2022/01/09 09:39:13;;;;;;;32.00;18.40;;;;;;;;;;4994874;28;20027;-38
2022/01/09 09:41:41;;;;;;;28.27;18.45;;;;;;;;;;4994853;28;20107;-38
2022/01/09 09:44:09;;;;;;;27.80;16.15;;;;;;;;;;4994910;28;20497;-38
2022/01/09 09:46:35;;;;;;;29.90;17.90;;;;;;;;;;4994807;28;20482;-38
2022/01/09 09:49:02;;;;;;;29.50;16.02;;;;;;;;;;4994908;28;20429;-39
2022/01/09 09:51:29;;;;;;;31.08;18.15;;;;;;;;;;4994618;28;20034;-39
2022/01/09 09:53:56;;;;;;;28.67;17.13;;;;;;;;;;4994404;28;20462;-39
2022/01/09 09:56:22;;;;;;;28.80;17.50;;;;;;;;;;4994885;28;20359;-39
2022/01/09 09:58:49;;;;;;;30.60;18.05;;;;;;;;;;4994811;28;20025;-39
2022/01/09 10:01:27;;;;;;;29.83;16.55;;;;;;;;;;4994488;28;20113;-39
2022/01/09 10:03:58;;;;;;;25.92;17.02;;;;;;;;;;4994413;28;20356;-39
2022/01/09 10:06:34;;;;;;;26.63;17.48;;;;;;;;;;4993998;28;20030;-39
2022/01/09 10:09:22;;;;;;;22.75;15.02;;;;;;;;;;4994098;28;20027;-39
2022/01/09 10:11:53;;;;;;;23.70;15.65;;;;;;;;;;4993306;28;20038;-38
2022/01/09 10:14:30;;;;;;;26.50;16.67;;;;;;;;;;4994499;28;20105;-39
2022/01/09 10:17:11;;;;;;;24.60;15.98;;;;;;;;;;4993431;28;20489;-38
2022/01/09 10:19:52;;;;;;;28.55;17.27;;;;;;;;;;4991845;28;20050;-38
2022/01/09 10:22:23;;;;;;;25.23;15.82;;;;;;;;;;4991943;28;20108;-38
2022/01/09 10:24:49;;;;;;;26.63;16.75;;;;;;;;;;4993485;28;20034;-39
2022/01/09 10:27:50;;;;;;;26.15;15.93;;;;;;;;;;4994002;28;20031;-38
2022/01/09 10:30:20;;;;;;;25.92;16.40;;;;;;;;;;4972386;28;20500;-38
2022/01/09 10:32:46;;;;;;;26.83;16.20;;;;;;;;;;4993956;28;20030;-38
2022/01/09 10:35:19;;;;;;;22.40;14.57;;;;;;;;;;4993892;28;20030;-38
2022/01/09 10:37:47;;;;;;;25.65;15.73;;;;;;;;;;4993836;28;20500;-39
2022/01/09 10:40:28;;;;;;;23.95;15.75;;;;;;;;;;4993580;28;20022;-38
2022/01/09 10:43:07;;;;;;;24.00;14.55;;;;;;;;;;4991805;28;20037;-39
2022/01/09 10:45:36;;;;;;;24.10;16.10;;;;;;;;;;4993440;28;20030;-38
2022/01/09 10:48:17;;;;;;;23.30;15.15;;;;;;;;;;4993299;28;20026;-39
2022/01/09 10:50:43;;;;;;;22.20;14.63;;;;;;;;;;4992334;28;20113;-38
2022/01/09 10:53:17;;;;;;;22.10;14.90;;;;;;;;;;4993876;28;20065;-39
2022/01/09 10:56:02;;;;;;;24.38;15.00;;;;;;;;;;4992861;28;20078;-39
2022/01/09 10:58:28;;;;;;;23.48;14.73;;;;;;;;;;4991849;28;20359;-38
2022/01/09 11:01:23;;;;;;;25.33;15.27;;;;;;;;;;4993771;28;20022;-39
2022/01/09 11:03:54;;;;;;;24.50;14.60;;;;;;;;;;4991344;28;20045;-39
2022/01/09 11:06:21;;;;;;;23.13;15.07;;;;;;;;;;4993453;28;20026;-38
2022/01/09 11:08:47;;;;;;;25.95;15.80;;;;;;;;;;4993529;28;20037;-38
2022/01/09 11:11:56;;;;;;;28.33;15.30;;;;;;;;;;4993200;28;20042;-39
2022/01/09 11:14:06;;;;;;;22.33;13.95;;;;;;;;;;4987754;28;20034;-38
2022/01/09 11:16:33;;;;;;;20.17;13.00;;;;;;;;;;4993127;28;20058;-37
2022/01/09 11:19:06;;;;;;;25.02;15.05;;;;;;;;;;4993456;28;20035;-38
2022/01/09 11:21:32;;;;;;;26.35;15.25;;;;;;;;;;4993443;28;20031;-37
2022/01/09 11:24:28;;;;;;;24.05;13.38;;;;;;;;;;4993178;28;20470;-39
2022/01/09 11:27:35;;;;;;;11.73;6.70;;;;;;;;;;4992585;28;20030;-38
2022/01/09 11:30:19;;;;;;;25.33;13.38;;;;;;;;;;4991435;28;20022;-38
2022/01/09 11:33:04;;;;;;;16.80;10.18;;;;;;;;;;4992433;28;20069;-38
2022/01/09 11:35:46;;;;;;;19.42;10.95;;;;;;;;;;4991889;28;20030;-38
2022/01/09 11:38:50;;;;;;;32.67;15.15;;;;;;;;;;4992355;28;20026;-38
2022/01/09 11:41:24;;;;;;;24.88;13.88;;;;;;;;;;4992926;28;20065;-38
2022/01/09 11:44:02;;;;;;;22.88;11.75;;;;;;;;;;4993274;28;20105;-38
2022/01/09 11:46:30;;;;;;;20.55;10.95;;;;;;;;;;4992931;28;20387;-39
2022/01/09 11:48:55;;;;;;;21.58;12.68;;;;;;;;;;4993178;28;20023;-38
2022/01/09 11:51:27;;;;;;;19.83;9.82;;;;;;;;;;4993048;28;20049;-38
2022/01/09 11:54:08;;;;;;;34.63;16.80;;;;;;;;;;4992469;28;20033;-38
2022/01/09 11:57:08;;;;;;;38.40;20.00;;;;;;;;;;4992374;28;20026;-37
2022/01/09 11:59:37;;;;;;;18.40;10.27;;;;;;;;;;4992828;28;20034;-37
2022/01/09 12:02:02;;;;;;;33.53;17.35;;;;;;;;;;4992826;28;20029;-38
2022/01/09 12:04:30;;;;;;;22.98;10.52;;;;;;;;;;4993104;28;20494;-38
2022/01/09 12:07:10;;;;;;;18.90;10.65;;;;;;;;;;4993138;28;20026;-38
2022/01/09 12:09:46;;;;;;;29.48;14.10;;;;;;;;;;4992826;28;20534;-40
2022/01/09 12:12:15;;;;;;;26.52;13.55;;;;;;;;;;4993012;28;20049;-38
2022/01/09 12:14:58;;;;;;;38.83;15.83;;;;;;;;;;4991476;28;20033;-36
2022/01/09 12:17:25;;;;;;;20.40;10.32;;;;;;;;;;4992673;28;20744;-36
2022/01/09 12:20:03;;;;;;;19.65;10.45;;;;;;;;;;4992948;28;20026;-35
2022/01/09 12:22:48;;;;;;;24.80;11.75;;;;;;;;;;4992722;28;20218;-36
2022/01/09 12:25:29;;;;;;;20.50;11.00;;;;;;;;;;4992895;28;20150;-37
2022/01/09 12:27:59;;;;;;;15.02;8.68;;;;;;;;;;4992611;28;20038;-36
2022/01/09 12:30:31;;;;;;;21.45;11.52;;;;;;;;;;4992775;28;20093;-36
2022/01/09 12:32:57;;;;;;;13.82;9.05;;;;;;;;;;4990938;28;20172;-38
2022/01/09 12:35:23;;;;;;;23.25;11.93;;;;;;;;;;4990288;28;20022;-36
2022/01/09 12:37:55;;;;;;;14.40;9.52;;;;;;;;;;4991879;28;20116;-36
2022/01/09 12:40:25;;;;;;;18.40;8.82;;;;;;;;;;4993748;28;20034;-36
2022/01/09 12:42:53;;;;;;;27.10;13.95;;;;;;;;;;4995529;28;20037;-36
2022/01/09 12:45:24;;;;;;;20.20;10.60;;;;;;;;;;4994350;28;20089;-37
2022/01/09 12:47:50;;;;;;;26.02;14.32;;;;;;;;;;4995648;28;20034;-36
2022/01/09 12:50:16;;;;;;;13.63;8.20;;;;;;;;;;4996128;28;20034;-37
2022/01/09 12:52:42;;;;;;;15.30;8.75;;;;;;;;;;4995263;28;20371;-37
2022/01/09 12:55:11;;;;;;;24.90;12.05;;;;;;;;;;4995099;28;20105;-36
2022/01/09 12:57:53;;;;;;;13.67;7.97;;;;;;;;;;4995674;28;20026;-36
2022/01/09 13:00:30;;;;;;;20.67;9.63;;;;;;;;;;4995706;28;20105;-37
2022/01/09 13:02:57;;;;;;;14.82;7.63;;;;;;;;;;4995926;28;20429;-36
2022/01/09 13:05:27;;;;;;;14.25;8.32;;;;;;;;;;4995647;28;20034;-36
2022/01/09 13:07:58;;;;;;;12.15;7.05;;;;;;;;;;4995776;28;20042;-38
2022/01/09 13:10:29;;;;;;;22.67;11.60;;;;;;;;;;4995704;28;20030;-37
2022/01/09 13:13:10;;;;;;;19.92;10.70;;;;;;;;;;4995387;28;20038;-36
2022/01/09 13:15:38;;;;;;;35.42;15.73;;;;;;;;;;4995665;28;20383;-37
2022/01/09 13:18:04;;;;;;;14.20;7.10;;;;;;;;;;4995601;28;20029;-36
2022/01/09 13:20:31;;;;;;;16.48;8.10;;;;;;;;;;4995521;28;20088;-36
2022/01/09 13:23:07;;;;;;;11.30;6.65;;;;;;;;;;4995286;28;20038;-37
2022/01/09 13:25:47;;;;;;;12.70;6.35;;;;;;;;;;4995496;28;20022;-36
2022/01/09 13:28:23;;;;;;;13.20;7.65;;;;;;;;;;4995130;28;20522;-37
2022/01/09 13:30:55;;;;;;;12.10;7.55;;;;;;;;;;4994919;28;20514;-36
2022/01/09 13:33:21;;;;;;;15.68;7.28;;;;;;;;;;4995069;28;20037;-36
2022/01/09 13:35:47;;;;;;;16.60;9.35;;;;;;;;;;4995224;28;20101;-38
2022/01/09 13:38:13;;;;;;;14.65;7.38;;;;;;;;;;4994978;28;20026;-36
2022/01/09 13:40:38;;;;;;;16.20;8.98;;;;;;;;;;4995187;28;20026;-36
2022/01/09 13:43:05;;;;;;;9.70;6.45;;;;;;;;;;4994815;28;20037;-39
2022/01/09 13:45:34;;;;;;;19.95;7.72;;;;;;;;;;4994770;28;20475;-36
2022/01/09 13:48:00;;;;;;;17.30;8.17;;;;;;;;;;4995042;28;20474;-37
2022/01/09 13:50:33;;;;;;;13.65;7.85;;;;;;;;;;4994684;28;20113;-36
2022/01/09 13:53:07;;;;;;;15.38;7.95;;;;;;;;;;4994070;28;20049;-36
2022/01/09 13:55:35;;;;;;;17.63;9.20;;;;;;;;;;4995110;28;20387;-37
2022/01/09 13:58:05;;;;;;;15.15;7.45;;;;;;;;;;4994812;28;20073;-36
2022/01/09 14:00:32;;;;;;;12.63;7.90;;;;;;;;;;4994455;28;20109;-36
2022/01/09 14:03:00;;;;;;;13.90;8.40;;;;;;;;;;4994369;28;20041;-37
2022/01/09 14:05:27;;;;;;;16.83;9.02;;;;;;;;;;4994788;28;20026;-36
2022/01/09 14:07:57;;;;;;;11.00;6.80;;;;;;;;;;4994657;28;20023;-38
2022/01/09 14:10:49;;;;;;;14.50;7.97;;;;;;;;;;4994922;28;20026;-36
2022/01/09 14:13:20;;;;;;;13.80;8.50;;;;;;;;;;4994307;28;20129;-36
2022/01/09 14:15:49;;;;;;;20.13;7.05;;;;;;;;;;4994437;28;20034;-38
2022/01/09 14:18:25;;;;;;;9.52;5.10;;;;;;;;;;4993239;28;20421;-36
2022/01/09 14:20:59;;;;;;;17.02;7.70;;;;;;;;;;4994090;28;20022;-36
2022/01/09 14:23:31;;;;;;;16.05;9.85;;;;;;;;;;4994042;28;20378;-36
2022/01/09 14:26:08;;;;;;;18.48;8.70;;;;;;;;;;4994333;28;20022;-36
2022/01/09 14:28:34;;;;;;;22.88;10.90;;;;;;;;;;4994022;28;20030;-36
2022/01/09 14:31:08;;;;;;;14.68;8.23;;;;;;;;;;4994147;28;20034;-36